createdAt,value
2022-12-07T00:01:27.747Z,1.37
2022-12-07T00:04:05.700Z,1.63
2022-12-07T00:06:35.135Z,1.60
2022-12-07T00:09:02.345Z,1.52
2022-12-07T00:11:29.776Z,1.52
2022-12-07T00:14:01.480Z,1.17
2022-12-07T00:16:31.959Z,1.15
2022-12-07T00:18:59.920Z,1.27
2022-12-07T00:21:32.508Z,1.17
2022-12-07T00:24:02.296Z,1.02
2022-12-07T00:26:37.658Z,1.05
2022-12-07T00:29:26.692Z,1.20
2022-12-07T00:31:53.918Z,1.10
2022-12-07T00:34:22.414Z,1.40
2022-12-07T00:36:50.377Z,1.30
2022-12-07T00:39:17.784Z,1.38
2022-12-07T00:41:44.897Z,0.90
2022-12-07T00:44:12.072Z,1.17
2022-12-07T00:46:39.023Z,0.88
2022-12-07T00:49:06.101Z,1.00
2022-12-07T00:51:33.117Z,1.35
2022-12-07T00:54:00.037Z,1.23
2022-12-07T00:56:29.191Z,1.33
2022-12-07T00:59:04.186Z,1.15
2022-12-07T01:01:37.624Z,1.10
2022-12-07T01:04:05.144Z,1.42
2022-12-07T01:06:32.369Z,1.48
2022-12-07T01:08:59.798Z,1.08
2022-12-07T01:11:29.966Z,1.15
2022-12-07T01:13:58.539Z,1.02
2022-12-07T01:16:27.399Z,0.90
2022-12-07T01:18:56.180Z,0.98
2022-12-07T01:23:51.749Z,1.50
2022-12-07T01:26:23.208Z,1.20
2022-12-07T01:28:50.635Z,1.70
2022-12-07T01:31:20.913Z,1.15
2022-12-07T01:33:50.243Z,1.05
2022-12-07T01:36:23.476Z,1.10
2022-12-07T01:38:53.729Z,0.90
2022-12-07T01:41:22.294Z,1.00
2022-12-07T01:44:23.090Z,0.68
2022-12-07T01:46:50.080Z,1.15
2022-12-07T01:49:34.072Z,0.98
2022-12-07T01:52:25.438Z,1.30
2022-12-07T01:54:58.886Z,0.95
2022-12-07T01:57:26.279Z,1.10
2022-12-07T01:59:54.644Z,1.35
2022-12-07T02:02:35.099Z,1.25
2022-12-07T02:05:07.811Z,1.02
2022-12-07T02:07:38.053Z,1.45
2022-12-07T02:10:19.661Z,0.95
2022-12-07T02:12:49.892Z,1.15
2022-12-07T02:15:17.115Z,0.73
2022-12-07T02:18:08.454Z,0.80
2022-12-07T02:20:46.657Z,0.80
2022-12-07T02:23:15.555Z,0.80
2022-12-07T02:26:11.398Z,0.80
2022-12-07T02:29:06.156Z,0.82
2022-12-07T02:31:33.368Z,1.02
2022-12-07T02:34:13.752Z,0.80
2022-12-07T02:36:44.859Z,1.20
2022-12-07T02:39:21.394Z,0.90
2022-12-07T02:41:53.551Z,0.88
2022-12-07T02:44:24.408Z,0.95
2022-12-07T02:46:59.039Z,0.80
2022-12-07T02:49:31.197Z,0.85
2022-12-07T02:51:58.302Z,0.80
2022-12-07T02:54:25.605Z,0.80
2022-12-07T02:57:05.628Z,0.95
2022-12-07T02:59:56.702Z,0.90
2022-12-07T03:02:49.075Z,1.15
2022-12-07T03:05:53.025Z,0.70
2022-12-07T03:08:25.991Z,1.00
2022-12-07T03:11:07.447Z,1.35
2022-12-07T03:13:48.879Z,0.80
2022-12-07T03:16:19.285Z,1.02
2022-12-07T03:18:56.247Z,0.95
2022-12-07T03:21:29.643Z,0.65
2022-12-07T03:23:59.619Z,0.82
2022-12-07T03:26:33.595Z,0.85
2022-12-07T03:29:06.619Z,0.70
2022-12-07T03:31:39.090Z,0.82
2022-12-07T03:34:29.158Z,1.00
2022-12-07T03:37:09.844Z,0.80
2022-12-07T03:40:07.782Z,0.80
2022-12-07T03:42:35.343Z,0.90
2022-12-07T03:45:04.362Z,0.60
2022-12-07T03:47:36.004Z,0.88
2022-12-07T03:50:29.673Z,0.70
2022-12-07T03:53:03.594Z,0.82
2022-12-07T03:55:33.693Z,0.80
2022-12-07T03:58:06.986Z,0.70
2022-12-07T04:00:34.496Z,0.80
2022-12-07T04:03:01.499Z,0.63
2022-12-07T04:05:29.527Z,0.50
2022-12-07T04:07:56.592Z,0.80
2022-12-07T04:10:23.562Z,0.55
2022-12-07T04:12:50.498Z,0.70
2022-12-07T04:15:17.449Z,0.60
2022-12-07T04:17:44.385Z,0.63
2022-12-07T04:20:12.185Z,0.50
2022-12-07T04:22:39.160Z,0.90
2022-12-07T04:25:06.596Z,0.73
2022-12-07T04:27:33.679Z,0.70
2022-12-07T04:30:01.024Z,0.70
2022-12-07T04:32:28.297Z,0.50
2022-12-07T04:34:55.985Z,0.70
2022-12-07T04:37:23.831Z,0.90
2022-12-07T04:39:51.345Z,0.60
2022-12-07T04:42:18.323Z,0.50
2022-12-07T04:44:45.688Z,0.80
2022-12-07T04:47:12.767Z,0.63
2022-12-07T04:49:39.799Z,0.60
2022-12-07T04:52:06.733Z,0.80
2022-12-07T04:54:33.744Z,0.60
2022-12-07T04:57:00.722Z,1.27
2022-12-07T04:59:27.765Z,0.80
2022-12-07T05:01:54.843Z,0.80
2022-12-07T05:04:21.818Z,0.80
2022-12-07T05:06:48.722Z,0.57
2022-12-07T05:09:15.648Z,0.88
2022-12-07T05:11:42.745Z,0.65
2022-12-07T05:14:14.038Z,0.57
2022-12-07T05:16:42.238Z,0.60
2022-12-07T05:19:09.775Z,0.88
2022-12-07T05:21:38.124Z,0.50
2022-12-07T05:24:06.022Z,0.73
2022-12-07T05:26:33.595Z,0.60
2022-12-07T05:29:00.954Z,0.52
2022-12-07T05:31:28.468Z,0.60
2022-12-07T05:33:55.893Z,0.50
2022-12-07T05:36:23.570Z,0.70
2022-12-07T05:38:50.543Z,0.47
2022-12-07T05:41:38.188Z,0.93
2022-12-07T05:44:06.324Z,0.63
2022-12-07T05:46:34.028Z,0.80
2022-12-07T05:49:01.292Z,0.60
2022-12-07T05:51:28.336Z,0.63
2022-12-07T05:53:55.390Z,0.70
2022-12-07T05:56:22.427Z,0.52
2022-12-07T05:59:08.246Z,0.75
2022-12-07T06:01:35.303Z,0.60
2022-12-07T06:04:02.346Z,0.50
2022-12-07T06:06:29.411Z,0.68
2022-12-07T06:08:56.355Z,0.60
2022-12-07T06:11:41.793Z,0.60
2022-12-07T06:14:08.854Z,0.60
2022-12-07T06:16:36.020Z,0.77
2022-12-07T06:19:03.098Z,0.70
2022-12-07T06:21:30.077Z,0.80
2022-12-07T06:23:57.276Z,0.82
2022-12-07T06:26:24.238Z,0.57
2022-12-07T06:28:51.174Z,0.60
2022-12-07T06:31:18.130Z,0.77
2022-12-07T06:33:45.417Z,0.60
2022-12-07T06:36:12.814Z,0.70
2022-12-07T06:38:39.774Z,0.65
2022-12-07T06:41:07.530Z,0.70
2022-12-07T06:43:35.185Z,0.60
2022-12-07T06:46:02.247Z,0.57
2022-12-07T06:48:29.521Z,0.82
2022-12-07T06:50:56.578Z,0.75
2022-12-07T06:53:23.932Z,0.95
2022-12-07T06:55:51.400Z,0.77
2022-12-07T06:58:18.722Z,0.90
2022-12-07T07:00:46.513Z,0.90
2022-12-07T07:03:13.576Z,0.98
2022-12-07T07:05:40.777Z,0.80
2022-12-07T07:08:24.405Z,0.70
2022-12-07T07:10:51.889Z,1.00
2022-12-07T07:13:18.971Z,0.70
2022-12-07T07:15:46.194Z,0.70
2022-12-07T07:18:13.306Z,0.70
2022-12-07T07:20:40.415Z,0.80
2022-12-07T07:23:08.243Z,0.75
2022-12-07T07:25:35.619Z,0.80
2022-12-07T07:28:04.579Z,0.70
2022-12-07T07:30:32.175Z,0.70
2022-12-07T07:33:00.299Z,1.00
2022-12-07T07:35:28.736Z,0.60
2022-12-07T07:37:56.272Z,0.80
2022-12-07T07:40:23.923Z,0.70
2022-12-07T07:42:52.437Z,0.68
2022-12-07T07:45:21.188Z,0.80
2022-12-07T07:47:48.636Z,0.90
2022-12-07T07:50:17.034Z,0.80
2022-12-07T07:52:44.528Z,0.93
2022-12-07T07:55:11.843Z,0.70
2022-12-07T07:57:40.444Z,0.60
2022-12-07T08:02:41.732Z,1.00
2022-12-07T08:05:09.084Z,0.90
2022-12-07T08:07:36.281Z,0.60
2022-12-07T08:10:04.068Z,0.52
2022-12-07T08:12:31.240Z,1.17
2022-12-07T08:14:58.208Z,0.90
2022-12-07T08:17:25.291Z,0.73
2022-12-07T08:19:52.390Z,0.77
2022-12-07T08:22:20.089Z,0.63
2022-12-07T08:24:47.192Z,0.80
2022-12-07T08:27:14.119Z,0.75
2022-12-07T08:29:41.069Z,0.65
2022-12-07T08:32:09.941Z,0.70
2022-12-07T08:34:38.072Z,0.90
2022-12-07T08:37:05.068Z,0.98
2022-12-07T08:39:32.881Z,0.90
2022-12-07T08:42:00.263Z,0.90
2022-12-07T08:44:27.365Z,0.80
2022-12-07T08:46:59.913Z,0.88
2022-12-07T08:49:38.336Z,0.77
2022-12-07T08:52:06.584Z,0.77
2022-12-07T08:54:36.488Z,0.82
2022-12-07T08:57:04.148Z,0.88
2022-12-07T08:59:31.591Z,1.00
2022-12-07T09:01:58.781Z,1.00
2022-12-07T09:04:25.820Z,1.20
2022-12-07T09:06:53.065Z,1.10
2022-12-07T09:09:20.319Z,1.00
2022-12-07T09:11:47.380Z,1.00
2022-12-07T09:14:14.759Z,0.95
2022-12-07T09:16:41.780Z,0.90
2022-12-07T09:19:09.702Z,0.77
2022-12-07T09:21:36.638Z,1.10
2022-12-07T09:24:03.893Z,0.82
2022-12-07T09:26:30.908Z,0.75
2022-12-07T09:28:57.957Z,0.75
2022-12-07T09:31:26.113Z,0.90
2022-12-07T09:34:01.321Z,0.88
2022-12-07T09:36:29.527Z,0.95
2022-12-07T09:38:56.751Z,0.90
2022-12-07T09:41:25.359Z,1.00
2022-12-07T09:46:21.715Z,1.10
2022-12-07T09:48:51.027Z,0.90
2022-12-07T09:51:25.418Z,0.95
2022-12-07T09:53:54.851Z,0.70
2022-12-07T09:56:23.742Z,1.00
2022-12-07T09:58:59.106Z,1.10
2022-12-07T10:01:26.149Z,0.90
2022-12-07T10:04:01.819Z,0.82
2022-12-07T10:06:28.884Z,0.68
2022-12-07T10:08:55.865Z,0.70
2022-12-07T10:11:22.948Z,0.98
2022-12-07T10:13:54.988Z,1.00
2022-12-07T10:16:39.711Z,0.80
2022-12-07T10:19:39.237Z,1.10
2022-12-07T10:22:15.340Z,0.90
2022-12-07T10:24:44.436Z,0.90
2022-12-07T10:27:31.110Z,0.98
2022-12-07T10:29:59.918Z,0.82
2022-12-07T10:32:36.347Z,0.95
2022-12-07T10:35:29.195Z,0.70
2022-12-07T10:37:59.467Z,0.65
2022-12-07T10:40:38.717Z,0.85
2022-12-07T10:43:12.836Z,0.70
2022-12-07T10:46:03.226Z,1.00
2022-12-07T10:48:56.367Z,0.70
2022-12-07T10:51:52.121Z,0.90
2022-12-07T10:54:22.037Z,0.90
2022-12-07T10:56:52.884Z,0.95
2022-12-07T10:59:41.028Z,0.90
2022-12-07T11:02:27.686Z,1.10
2022-12-07T11:05:13.211Z,0.80
2022-12-07T11:07:57.375Z,0.90
2022-12-07T11:10:28.337Z,0.70
2022-12-07T11:13:39.801Z,0.90
2022-12-07T11:16:20.440Z,0.70
2022-12-07T11:19:15.747Z,1.20
2022-12-07T11:21:49.471Z,0.73
2022-12-07T11:24:25.816Z,0.85
2022-12-07T11:27:14.295Z,0.75
2022-12-07T11:30:01.786Z,0.88
2022-12-07T11:32:40.961Z,0.85
2022-12-07T11:35:23.746Z,1.20
2022-12-07T11:38:04.436Z,0.90
2022-12-07T11:40:39.398Z,0.82
2022-12-07T11:43:33.746Z,0.60
2022-12-07T11:46:09.499Z,0.90
2022-12-07T11:49:04.873Z,0.73
2022-12-07T11:51:37.476Z,0.80
2022-12-07T11:54:37.587Z,0.82
2022-12-07T11:57:18.446Z,0.88
2022-12-07T12:00:03.341Z,1.17
2022-12-07T12:02:50.257Z,0.80
2022-12-07T12:05:23.483Z,0.80
2022-12-07T12:11:32.176Z,0.90
2022-12-07T12:17:32.241Z,1.08
2022-12-07T12:20:24.470Z,0.82
2022-12-07T12:22:57.312Z,1.02
2022-12-07T12:25:32.776Z,0.90
2022-12-07T12:28:00.822Z,1.00
2022-12-07T12:30:37.959Z,0.68
2022-12-07T12:33:23.692Z,0.93
2022-12-07T12:36:16.731Z,0.95
2022-12-07T12:39:17.081Z,1.00
2022-12-07T12:41:46.875Z,1.33
2022-12-07T12:44:16.831Z,1.30
2022-12-07T12:46:54.673Z,1.20
2022-12-07T12:49:23.512Z,1.10
2022-12-07T12:52:18.284Z,1.00
2022-12-07T12:55:08.087Z,1.00
2022-12-07T12:57:36.528Z,1.40
2022-12-07T13:00:29.076Z,1.05
2022-12-07T13:02:57.820Z,1.02
2022-12-07T13:05:28.962Z,1.00
2022-12-07T13:07:57.921Z,1.35
2022-12-07T13:10:24.930Z,1.00
2022-12-07T13:12:59.051Z,0.90
2022-12-07T13:15:39.466Z,1.20
2022-12-07T13:18:09.317Z,1.17
2022-12-07T13:21:08.059Z,1.05
2022-12-07T13:23:38.095Z,1.17
2022-12-07T13:26:21.255Z,1.15
2022-12-07T13:29:12.855Z,0.73
2022-12-07T13:31:47.612Z,1.38
2022-12-07T13:34:42.820Z,0.80
2022-12-07T13:37:19.042Z,1.10
2022-12-07T13:39:55.711Z,1.90
2022-12-07T13:42:34.424Z,4.30
2022-12-07T13:45:21.500Z,4.25
2022-12-07T13:47:57.190Z,3.08
2022-12-07T13:50:25.655Z,3.40
2022-12-07T13:52:57.163Z,3.15
2022-12-07T13:55:24.234Z,2.83
2022-12-07T13:57:54.158Z,2.25
2022-12-07T14:00:24.050Z,1.90
2022-12-07T14:03:25.074Z,2.55
2022-12-07T14:06:06.550Z,3.20
2022-12-07T14:08:33.533Z,2.50
2022-12-07T14:11:00.933Z,1.80
2022-12-07T14:13:36.697Z,2.35
2022-12-07T14:16:23.963Z,2.10
2022-12-07T14:18:51.018Z,1.95
2022-12-07T14:21:21.113Z,2.35
2022-12-07T14:24:16.325Z,1.88
2022-12-07T14:26:43.679Z,2.17
2022-12-07T14:29:25.632Z,2.38
2022-12-07T14:31:54.126Z,2.70
2022-12-07T14:34:22.514Z,2.55
2022-12-07T14:36:49.711Z,3.42
2022-12-07T14:39:17.173Z,2.78
2022-12-07T14:41:53.190Z,2.80
2022-12-07T14:44:23.939Z,3.42
2022-12-07T14:49:40.480Z,3.58
2022-12-07T14:57:33.457Z,4.43
2022-12-07T15:00:00.410Z,4.25
2022-12-07T15:02:27.451Z,4.45
2022-12-07T15:04:54.494Z,4.65
2022-12-07T15:07:22.528Z,5.15
2022-12-07T15:09:50.074Z,5.07
2022-12-07T15:12:17.059Z,4.97
2022-12-07T15:14:44.015Z,6.07
2022-12-07T15:17:26.401Z,5.65
2022-12-07T15:19:57.172Z,6.03
2022-12-07T15:22:24.065Z,5.07
2022-12-07T15:24:51.070Z,4.57
2022-12-07T15:27:18.005Z,5.70
2022-12-07T15:29:45.019Z,5.40
2022-12-07T15:32:12.055Z,6.43
2022-12-07T15:34:40.525Z,6.28
2022-12-07T15:39:37.221Z,6.45
2022-12-07T15:42:04.443Z,6.05
2022-12-07T15:44:49.921Z,5.50
2022-12-07T15:47:17.006Z,4.93
2022-12-07T15:49:44.215Z,4.68
2022-12-07T15:52:11.303Z,5.05
2022-12-07T15:54:38.314Z,4.35
2022-12-07T15:57:05.588Z,4.65
2022-12-07T15:59:32.734Z,4.43
2022-12-07T16:01:59.917Z,4.30
2022-12-07T16:04:29.540Z,4.50
2022-12-07T16:06:57.553Z,4.47
2022-12-07T16:09:24.623Z,5.05
2022-12-07T16:11:51.734Z,4.80
2022-12-07T16:14:18.887Z,4.95
2022-12-07T16:16:45.958Z,4.38
2022-12-07T16:19:13.016Z,5.13
2022-12-07T16:21:40.300Z,5.18
2022-12-07T16:24:08.083Z,5.38
2022-12-07T16:26:35.171Z,5.13
2022-12-07T16:29:02.377Z,4.97
2022-12-07T16:31:29.659Z,4.88
2022-12-07T16:33:59.164Z,4.35
2022-12-07T16:37:01.829Z,4.53
2022-12-07T16:39:15.586Z,4.07
2022-12-07T16:41:42.777Z,4.00
2022-12-07T16:44:13.570Z,3.72
2022-12-07T16:46:41.745Z,2.88
2022-12-07T16:49:18.402Z,3.00
2022-12-07T16:51:45.864Z,2.70
2022-12-07T16:54:13.913Z,3.05
2022-12-07T16:56:41.259Z,3.25
2022-12-07T16:59:08.838Z,3.00
2022-12-07T17:01:37.087Z,3.05
2022-12-07T17:04:05.389Z,3.63
2022-12-07T17:06:33.148Z,2.70
2022-12-07T17:09:00.556Z,3.25
2022-12-07T17:11:30.228Z,3.00
2022-12-07T17:14:16.123Z,2.55
2022-12-07T17:16:43.338Z,2.38
2022-12-07T17:19:13.333Z,2.05
2022-12-07T17:21:41.021Z,2.40
2022-12-07T17:24:09.985Z,2.10
2022-12-07T17:26:37.749Z,1.90
2022-12-07T17:29:07.241Z,2.03
2022-12-07T17:31:34.478Z,2.35
2022-12-07T17:34:02.331Z,2.17
2022-12-07T17:36:31.199Z,2.40
2022-12-07T17:38:58.681Z,2.15
2022-12-07T17:41:48.437Z,2.20
2022-12-07T17:44:18.323Z,2.45
2022-12-07T17:46:47.117Z,2.95
2022-12-07T17:49:14.812Z,3.10
2022-12-07T17:52:00.097Z,2.40
2022-12-07T17:54:27.085Z,2.70
2022-12-07T17:56:53.979Z,1.83
2022-12-07T17:59:21.253Z,1.90
2022-12-07T18:01:48.264Z,2.00
2022-12-07T18:04:15.513Z,2.90
2022-12-07T18:06:45.215Z,2.88
2022-12-07T18:09:15.950Z,2.60
2022-12-07T18:11:42.950Z,3.38
2022-12-07T18:14:10.014Z,3.60
2022-12-07T18:16:37.324Z,3.67
2022-12-07T18:19:07.808Z,3.95
2022-12-07T18:21:36.591Z,4.05
2022-12-07T18:24:04.956Z,3.38
2022-12-07T18:26:35.954Z,3.35
2022-12-07T18:29:04.024Z,2.92
2022-12-07T18:31:31.133Z,2.88
2022-12-07T18:34:08.713Z,2.65
2022-12-07T18:36:35.874Z,2.03
2022-12-07T18:39:05.634Z,2.40
2022-12-07T18:41:32.622Z,2.40
2022-12-07T18:43:59.639Z,2.30
2022-12-07T18:46:26.730Z,1.98
2022-12-07T18:48:57.106Z,2.30
2022-12-07T18:51:30.394Z,2.50
2022-12-07T18:54:01.221Z,2.75
2022-12-07T18:56:29.217Z,2.17
2022-12-07T18:59:17.306Z,1.85
2022-12-07T19:01:47.597Z,1.98
2022-12-07T19:04:15.163Z,2.17
2022-12-07T19:06:43.740Z,2.42
2022-12-07T19:11:50.300Z,3.03
2022-12-07T19:14:19.606Z,2.75
2022-12-07T19:16:49.829Z,2.58
2022-12-07T19:19:22.760Z,2.78
2022-12-07T19:21:49.886Z,2.50
2022-12-07T19:24:23.147Z,2.50
2022-12-07T19:26:50.695Z,2.10
2022-12-07T19:29:17.646Z,2.33
2022-12-07T19:31:44.631Z,2.33
2022-12-07T19:34:13.249Z,2.30
2022-12-07T19:39:12.935Z,2.80
2022-12-07T19:41:44.054Z,2.80
2022-12-07T19:44:16.782Z,3.55
2022-12-07T19:46:50.168Z,3.97
2022-12-07T19:49:18.180Z,3.33
2022-12-07T19:51:50.213Z,3.22
2022-12-07T19:54:19.985Z,3.08
2022-12-07T19:56:48.233Z,2.80
2022-12-07T19:59:16.494Z,2.13
2022-12-07T20:01:43.923Z,2.33
2022-12-07T20:04:14.127Z,1.90
2022-12-07T20:06:41.107Z,1.85
2022-12-07T20:09:08.182Z,2.20
2022-12-07T20:11:55.217Z,1.85
2022-12-07T20:14:22.577Z,1.88
2022-12-07T20:16:50.084Z,2.00
2022-12-07T20:19:17.441Z,1.90
2022-12-07T20:21:45.420Z,2.25
2022-12-07T20:24:17.371Z,1.90
2022-12-07T20:26:46.280Z,2.20
2022-12-07T20:29:18.503Z,2.35
2022-12-07T20:31:47.865Z,2.25
2022-12-07T20:34:15.293Z,1.95
2022-12-07T20:36:43.054Z,2.10
2022-12-07T20:39:10.515Z,2.22
2022-12-07T20:41:56.945Z,2.63
2022-12-07T20:44:24.097Z,2.53
2022-12-07T20:46:51.109Z,2.20
2022-12-07T20:49:18.719Z,3.08
2022-12-07T20:51:46.359Z,4.40
2022-12-07T20:54:14.520Z,3.63
2022-12-07T20:56:42.207Z,3.60
2022-12-07T20:59:12.945Z,3.43
2022-12-07T21:01:40.353Z,3.17
2022-12-07T21:04:07.926Z,3.03
2022-12-07T21:06:35.572Z,3.47
2022-12-07T21:09:02.886Z,2.85
2022-12-07T21:11:31.474Z,3.38
2022-12-07T21:13:58.664Z,3.53
2022-12-07T21:16:30.556Z,3.00
2022-12-07T21:19:02.294Z,2.85
2022-12-07T21:21:30.414Z,3.08
2022-12-07T21:24:02.094Z,3.10
2022-12-07T21:26:33.854Z,3.50
2022-12-07T21:29:02.175Z,2.90
2022-12-07T21:31:29.456Z,3.40
2022-12-07T21:33:56.523Z,2.60
2022-12-07T21:36:26.467Z,2.50
2022-12-07T21:38:53.663Z,2.60
2022-12-07T21:41:26.928Z,2.58
2022-12-07T21:43:54.402Z,2.13
2022-12-07T21:46:28.101Z,3.00
2022-12-07T21:49:00.986Z,2.72
2022-12-07T21:51:29.649Z,2.83
2022-12-07T21:53:58.288Z,2.60
2022-12-07T21:59:04.804Z,2.97
2022-12-07T22:01:38.199Z,2.47
2022-12-07T22:04:09.853Z,2.70
2022-12-07T22:06:37.705Z,2.30
2022-12-07T22:09:06.522Z,2.40
2022-12-07T22:11:35.420Z,2.42
2022-12-07T22:14:22.037Z,1.85
2022-12-07T22:16:49.123Z,2.28
2022-12-07T22:19:16.104Z,2.28
2022-12-07T22:21:43.106Z,2.47
2022-12-07T22:24:13.083Z,1.90
2022-12-07T22:26:42.014Z,1.23
2022-12-07T22:29:09.372Z,1.63
2022-12-07T22:31:38.122Z,1.73
2022-12-07T22:34:05.206Z,1.40
2022-12-07T22:36:33.091Z,1.20
2022-12-07T22:39:01.426Z,1.17
2022-12-07T22:41:33.146Z,1.42
2022-12-07T22:44:00.870Z,1.38
2022-12-07T22:46:30.053Z,1.30
2022-12-07T22:48:57.058Z,1.40
2022-12-07T22:51:26.712Z,1.17
2022-12-07T22:53:54.288Z,1.10
2022-12-07T22:56:21.655Z,1.00
2022-12-07T22:58:49.338Z,0.93
2022-12-07T23:01:18.821Z,1.10
2022-12-07T23:03:46.282Z,1.00
2022-12-07T23:06:15.351Z,1.00
2022-12-07T23:08:42.545Z,0.90
2022-12-07T23:11:11.587Z,1.00
2022-12-07T23:13:38.517Z,1.17
2022-12-07T23:16:11.953Z,0.77
2022-12-07T23:18:40.544Z,0.90
2022-12-07T23:23:35.146Z,1.00
2022-12-07T23:26:07.062Z,0.80
2022-12-07T23:28:34.877Z,0.98
2022-12-07T23:31:13.020Z,0.90
2022-12-07T23:33:41.100Z,1.10
2022-12-07T23:36:19.846Z,0.90
2022-12-07T23:38:52.215Z,1.00
2022-12-07T23:41:21.511Z,0.90
2022-12-07T23:43:49.062Z,1.13
2022-12-07T23:46:21.687Z,0.85
2022-12-07T23:48:50.694Z,0.90
2022-12-07T23:51:18.221Z,0.95
2022-12-07T23:53:46.886Z,0.85
2022-12-07T23:58:42.198Z,0.80
